createdAt,value
2019-06-07T00:00:29.848Z,10.58
2019-06-07T00:02:41.540Z,12.37
2019-06-07T00:05:12.496Z,11.00
2019-06-07T00:07:40.665Z,12.30
2019-06-07T00:10:15.465Z,12.80
2019-06-07T00:12:39.992Z,13.32
2019-06-07T00:15:11.710Z,12.30
2019-06-07T00:17:38.963Z,11.83
2019-06-07T00:20:13.444Z,12.15
2019-06-07T00:22:39.181Z,13.08
2019-06-07T00:25:12.571Z,11.68
2019-06-07T00:27:39.274Z,13.13
2019-06-07T00:30:32.740Z,11.70
2019-06-07T00:32:40.059Z,11.97
2019-06-07T00:35:09.182Z,11.97
2019-06-07T00:37:37.803Z,13.18
2019-06-07T00:40:20.923Z,12.63
2019-06-07T00:42:38.766Z,12.58
2019-06-07T00:45:07.835Z,12.75
2019-06-07T00:47:36.711Z,12.47
2019-06-07T00:50:06.323Z,13.55
2019-06-07T00:55:06.685Z,16.05
2019-06-07T00:57:35.140Z,13.70
2019-06-07T01:00:05.221Z,16.10
2019-06-07T01:02:34.176Z,13.80
2019-06-07T01:05:02.716Z,17.00
2019-06-07T01:07:31.170Z,15.90
2019-06-07T01:09:59.620Z,15.58
2019-06-07T01:12:28.089Z,16.37
2019-06-07T01:14:56.538Z,16.57
2019-06-07T01:17:41.703Z,15.10
2019-06-07T01:19:58.244Z,15.35
2019-06-07T01:22:28.898Z,18.92
2019-06-07T01:24:56.897Z,15.83
2019-06-07T01:27:25.693Z,16.50
2019-06-07T01:29:54.156Z,16.40
2019-06-07T01:32:26.539Z,16.73
2019-06-07T01:34:53.091Z,15.70
2019-06-07T01:37:24.909Z,17.23
2019-06-07T01:39:52.108Z,18.67
2019-06-07T01:42:22.656Z,18.00
2019-06-07T01:44:50.691Z,20.00
2019-06-07T01:47:21.248Z,19.65
2019-06-07T01:49:49.640Z,20.52
2019-06-07T01:52:19.516Z,23.32
2019-06-07T01:54:58.059Z,20.20
2019-06-07T01:57:36.187Z,23.22
2019-06-07T01:59:48.600Z,21.30
2019-06-07T02:02:17.788Z,21.12
2019-06-07T02:04:48.051Z,21.42
2019-06-07T02:07:19.418Z,20.82
2019-06-07T02:09:47.395Z,21.57
2019-06-07T02:12:25.727Z,21.10
2019-06-07T02:14:46.676Z,21.87
2019-06-07T02:17:15.130Z,23.20
2019-06-07T02:19:43.621Z,21.48
2019-06-07T02:22:12.342Z,27.22
2019-06-07T02:24:40.805Z,23.10
2019-06-07T02:27:09.518Z,21.52
2019-06-07T02:29:38.337Z,24.65
2019-06-07T02:32:06.822Z,23.10
2019-06-07T02:34:39.222Z,23.38
2019-06-07T02:37:05.748Z,26.48
2019-06-07T02:39:40.047Z,23.18
2019-06-07T02:42:05.042Z,24.87
2019-06-07T02:44:38.904Z,23.65
2019-06-07T02:47:03.952Z,27.60
2019-06-07T02:49:39.596Z,25.17
2019-06-07T02:52:03.009Z,24.47
2019-06-07T02:54:39.200Z,26.45
2019-06-07T02:57:04.472Z,26.68
2019-06-07T02:59:57.466Z,25.57
2019-06-07T03:02:03.469Z,26.20
2019-06-07T03:04:40.565Z,26.20
2019-06-07T03:07:03.529Z,23.65
2019-06-07T03:09:35.027Z,28.85
2019-06-07T03:12:04.697Z,25.60
2019-06-07T03:14:35.547Z,27.32
2019-06-07T03:17:07.280Z,25.65
2019-06-07T03:19:41.849Z,27.20
2019-06-07T03:22:10.351Z,27.52
2019-06-07T03:24:42.015Z,23.60
2019-06-07T03:27:33.960Z,24.90
2019-06-07T03:29:41.321Z,25.35
2019-06-07T03:32:10.297Z,30.77
2019-06-07T03:34:42.879Z,28.25
2019-06-07T03:37:08.916Z,29.55
2019-06-07T03:39:40.977Z,26.40
2019-06-07T03:42:08.601Z,28.23
2019-06-07T03:44:40.641Z,28.95
2019-06-07T03:47:07.417Z,28.50
2019-06-07T03:49:41.729Z,27.73
2019-06-07T03:52:06.408Z,28.98
2019-06-07T03:54:38.395Z,31.50
2019-06-07T03:57:05.415Z,29.37
2019-06-07T03:59:38.581Z,27.75
2019-06-07T04:02:04.476Z,26.60
2019-06-07T04:04:37.824Z,26.80
2019-06-07T04:07:03.468Z,28.23
2019-06-07T04:09:35.658Z,28.15
2019-06-07T04:12:02.426Z,27.10
2019-06-07T04:14:31.333Z,25.88
2019-06-07T04:17:01.061Z,26.00
2019-06-07T04:19:31.465Z,29.85
2019-06-07T04:22:00.064Z,29.85
2019-06-07T04:24:28.885Z,30.30
2019-06-07T04:26:57.644Z,30.92
2019-06-07T04:29:32.949Z,30.10
2019-06-07T04:31:56.276Z,31.00
2019-06-07T04:34:25.047Z,29.25
2019-06-07T04:36:58.940Z,30.60
2019-06-07T04:39:25.081Z,27.20
2019-06-07T04:41:55.451Z,30.65
2019-06-07T04:44:26.165Z,28.80
2019-06-07T04:46:57.354Z,31.05
2019-06-07T04:49:26.302Z,31.85
2019-06-07T04:51:57.340Z,31.55
2019-06-07T04:54:26.439Z,31.73
2019-06-07T04:56:54.893Z,29.20
2019-06-07T05:00:00.916Z,31.37
2019-06-07T05:01:54.103Z,30.02
2019-06-07T05:04:22.840Z,28.70
2019-06-07T05:06:51.285Z,31.30
2019-06-07T05:09:19.745Z,32.60
2019-06-07T05:11:48.507Z,31.57
2019-06-07T05:14:17.300Z,30.05
2019-06-07T05:16:45.764Z,30.57
2019-06-07T05:19:14.605Z,29.35
2019-06-07T05:22:01.433Z,29.18
2019-06-07T05:24:13.270Z,32.73
2019-06-07T05:26:42.875Z,30.82
2019-06-07T05:29:11.557Z,31.30
2019-06-07T05:31:44.803Z,31.42
2019-06-07T05:34:11.143Z,31.45
2019-06-07T05:36:44.108Z,33.42
2019-06-07T05:39:09.766Z,29.80
2019-06-07T05:41:41.210Z,33.60
2019-06-07T05:44:13.074Z,30.52
2019-06-07T05:46:41.912Z,32.55
2019-06-07T05:49:09.806Z,35.20
2019-06-07T05:51:41.897Z,31.27
2019-06-07T05:54:08.786Z,32.73
2019-06-07T05:56:39.360Z,33.67
2019-06-07T05:59:07.436Z,34.75
2019-06-07T06:01:53.181Z,30.80
2019-06-07T06:04:06.479Z,31.35
2019-06-07T06:06:36.351Z,32.98
2019-06-07T06:09:13.689Z,32.38
2019-06-07T06:11:49.430Z,32.33
2019-06-07T06:14:08.552Z,31.05
2019-06-07T06:16:37.299Z,33.18
2019-06-07T06:19:06.340Z,37.67
2019-06-07T06:21:36.100Z,31.40
2019-06-07T06:24:04.703Z,30.05
2019-06-07T06:26:33.481Z,33.73
2019-06-07T06:29:01.920Z,30.27
2019-06-07T06:31:30.399Z,34.58
2019-06-07T06:33:59.259Z,31.07
2019-06-07T06:36:27.707Z,31.00
2019-06-07T06:38:56.144Z,30.02
2019-06-07T06:41:24.588Z,33.00
2019-06-07T06:43:53.037Z,27.95
2019-06-07T06:46:37.989Z,30.05
2019-06-07T06:48:55.359Z,31.75
2019-06-07T06:51:22.853Z,31.70
2019-06-07T06:53:52.603Z,30.92
2019-06-07T06:56:21.160Z,34.25
2019-06-07T06:59:33.092Z,31.48
2019-06-07T07:01:20.240Z,30.97
2019-06-07T07:04:09.192Z,29.82
2019-06-07T07:06:26.345Z,31.73
2019-06-07T07:08:53.391Z,36.00
2019-06-07T07:11:23.173Z,33.42
2019-06-07T07:13:56.333Z,33.60
2019-06-07T07:16:23.159Z,32.80
2019-06-07T07:18:54.427Z,28.85
2019-06-07T07:21:21.781Z,29.98
2019-06-07T07:24:14.578Z,32.67
2019-06-07T07:26:20.740Z,31.95
2019-06-07T07:28:51.756Z,32.58
2019-06-07T07:31:19.748Z,25.45
2019-06-07T07:36:37.399Z,26.27
2019-06-07T07:38:56.603Z,26.02
2019-06-07T07:41:19.416Z,27.32
2019-06-07T07:43:54.494Z,27.45
2019-06-07T07:46:28.992Z,22.67
2019-06-07T07:48:48.614Z,22.95
2019-06-07T07:51:17.927Z,27.27
2019-06-07T07:53:56.109Z,22.65
2019-06-07T07:56:16.853Z,19.70
2019-06-07T07:58:50.024Z,21.68
2019-06-07T08:01:15.904Z,22.62
2019-06-07T08:03:44.353Z,22.82
2019-06-07T08:06:13.150Z,22.40
2019-06-07T08:08:41.944Z,21.40
2019-06-07T08:11:10.404Z,21.15
2019-06-07T08:13:38.851Z,22.13
2019-06-07T08:16:13.581Z,23.45
2019-06-07T08:18:37.497Z,21.60
2019-06-07T08:21:23.706Z,21.95
2019-06-07T08:23:36.490Z,22.42
2019-06-07T08:26:05.042Z,20.75
2019-06-07T08:28:33.470Z,20.68
2019-06-07T08:31:06.950Z,23.05
2019-06-07T08:33:32.168Z,20.15
2019-06-07T08:36:17.137Z,20.90
2019-06-07T08:38:47.050Z,20.88
2019-06-07T08:41:11.073Z,21.57
2019-06-07T08:43:32.080Z,20.55
2019-06-07T08:46:06.854Z,19.82
2019-06-07T08:48:31.094Z,23.95
2019-06-07T08:51:06.599Z,18.25
2019-06-07T08:53:29.702Z,19.37
2019-06-07T08:56:05.805Z,18.85
2019-06-07T08:58:28.693Z,19.17
2019-06-07T09:01:03.856Z,17.20
2019-06-07T09:03:27.676Z,17.95
2019-06-07T09:05:59.458Z,17.45
2019-06-07T09:08:30.439Z,18.77
2019-06-07T09:10:59.436Z,19.20
2019-06-07T09:13:27.316Z,16.97
2019-06-07T09:15:58.799Z,16.60
2019-06-07T09:18:44.311Z,26.70
2019-06-07T09:20:58.187Z,17.90
2019-06-07T09:23:26.560Z,19.70
2019-06-07T09:26:04.572Z,18.65
2019-06-07T09:28:25.833Z,19.15
2019-06-07T09:30:57.094Z,17.42
2019-06-07T09:33:24.822Z,16.42
2019-06-07T09:35:53.666Z,14.83
2019-06-07T09:38:26.676Z,17.35
2019-06-07T09:40:52.381Z,16.80
2019-06-07T09:45:51.006Z,15.83
2019-06-07T09:49:01.324Z,16.15
2019-06-07T09:50:49.622Z,15.45
2019-06-07T09:53:22.566Z,15.00
2019-06-07T09:55:48.597Z,14.47
2019-06-07T09:58:50.105Z,15.25
2019-06-07T10:00:47.225Z,14.73
2019-06-07T10:03:21.348Z,16.45
2019-06-07T10:05:46.408Z,14.45
2019-06-07T10:09:00.994Z,16.05
2019-06-07T10:10:45.838Z,13.38
2019-06-07T10:13:14.550Z,15.40
2019-06-07T10:15:43.345Z,14.23
2019-06-07T10:18:12.246Z,12.60
2019-06-07T10:20:41.035Z,13.30
2019-06-07T10:23:10.116Z,11.78
2019-06-07T10:25:38.768Z,12.80
2019-06-07T10:28:08.250Z,11.78
2019-06-07T10:30:37.131Z,13.25
2019-06-07T10:33:06.876Z,13.32
2019-06-07T10:35:35.579Z,13.72
2019-06-07T10:38:04.741Z,14.35
2019-06-07T10:40:33.529Z,10.70
2019-06-07T10:43:02.910Z,11.38
2019-06-07T10:45:31.716Z,11.57
2019-06-07T10:48:01.531Z,13.13
2019-06-07T10:50:30.048Z,12.28
2019-06-07T10:52:58.824Z,12.23
2019-06-07T10:55:27.362Z,10.53
2019-06-07T10:57:55.811Z,12.33
2019-06-07T11:00:25.080Z,11.38
2019-06-07T11:02:55.316Z,11.22
2019-06-07T11:05:24.074Z,12.15
2019-06-07T11:07:52.914Z,12.65
2019-06-07T11:10:21.420Z,11.50
2019-06-07T11:12:49.870Z,12.23
2019-06-07T11:15:18.645Z,14.65
2019-06-07T11:17:47.110Z,14.53
2019-06-07T11:20:15.913Z,11.00
2019-06-07T11:22:44.374Z,16.40
2019-06-07T11:25:15.211Z,12.10
2019-06-07T11:27:43.707Z,14.20
2019-06-07T11:30:14.411Z,17.27
2019-06-07T11:32:43.310Z,12.82
2019-06-07T11:35:14.001Z,12.75
2019-06-07T11:37:43.357Z,13.78
2019-06-07T11:40:35.457Z,11.63
2019-06-07T11:42:43.007Z,11.78
2019-06-07T11:45:13.013Z,12.50
2019-06-07T11:47:41.695Z,11.28
2019-06-07T11:50:13.572Z,11.00
2019-06-07T11:52:46.147Z,13.65
2019-06-07T11:55:15.591Z,11.08
2019-06-07T11:57:44.124Z,10.98
2019-06-07T12:00:16.452Z,10.65
2019-06-07T12:02:45.762Z,9.55
2019-06-07T12:05:18.312Z,9.43
2019-06-07T12:07:45.329Z,7.28
2019-06-07T12:10:16.564Z,7.70
2019-06-07T12:12:44.509Z,10.40
2019-06-07T12:15:15.001Z,8.33
2019-06-07T12:17:43.985Z,8.48
2019-06-07T12:20:14.593Z,7.45
2019-06-07T12:22:43.210Z,7.90
2019-06-07T12:25:12.471Z,10.78
2019-06-07T12:27:42.537Z,7.40
2019-06-07T12:30:18.099Z,8.48
2019-06-07T12:32:41.264Z,6.75
2019-06-07T12:35:11.353Z,7.65
2019-06-07T12:37:44.290Z,9.50
2019-06-07T12:40:10.621Z,6.67
2019-06-07T12:42:40.204Z,6.05
2019-06-07T12:45:09.594Z,7.37
2019-06-07T12:47:38.034Z,9.93
2019-06-07T12:50:07.254Z,6.00
2019-06-07T12:52:36.096Z,7.62
2019-06-07T12:55:08.603Z,8.95
2019-06-07T12:57:37.051Z,5.55
2019-06-07T13:00:10.417Z,6.60
2019-06-07T13:02:38.876Z,7.97
2019-06-07T13:05:09.482Z,7.45
2019-06-07T13:07:37.953Z,5.80
2019-06-07T13:10:07.770Z,4.65
2019-06-07T13:12:36.248Z,4.95
2019-06-07T13:15:07.001Z,5.08
2019-06-07T13:17:35.977Z,8.70
2019-06-07T13:20:06.584Z,5.35
2019-06-07T13:22:35.157Z,6.20
2019-06-07T13:25:05.585Z,4.60
2019-06-07T13:27:34.097Z,7.10
2019-06-07T13:30:09.746Z,6.42
2019-06-07T13:32:33.100Z,4.45
2019-06-07T13:35:01.854Z,3.90
2019-06-07T13:37:30.289Z,6.75
2019-06-07T13:39:58.759Z,10.08
2019-06-07T13:42:27.197Z,6.22
2019-06-07T13:44:55.913Z,9.23
2019-06-07T13:47:25.348Z,4.33
2019-06-07T13:49:55.172Z,7.87
2019-06-07T13:52:24.041Z,5.80
2019-06-07T13:54:52.545Z,6.25
2019-06-07T13:57:22.233Z,5.50
2019-06-07T13:59:50.997Z,6.05
2019-06-07T14:02:20.872Z,3.70
2019-06-07T14:04:50.047Z,5.92
2019-06-07T14:07:19.090Z,5.12
2019-06-07T14:09:48.132Z,5.00
2019-06-07T14:12:16.569Z,4.10
2019-06-07T14:14:45.017Z,6.45
2019-06-07T14:17:13.448Z,5.28
2019-06-07T14:19:42.184Z,6.47
2019-06-07T14:22:10.612Z,3.83
2019-06-07T14:24:39.086Z,5.42
2019-06-07T14:27:07.534Z,4.75
2019-06-07T14:29:38.187Z,4.92
2019-06-07T14:32:07.971Z,7.25
2019-06-07T14:34:36.546Z,4.67
2019-06-07T14:37:06.632Z,6.30
2019-06-07T14:39:35.389Z,5.42
2019-06-07T14:42:10.025Z,4.60
2019-06-07T14:44:34.715Z,3.10
2019-06-07T14:47:03.511Z,4.60
2019-06-07T14:49:32.827Z,9.93
2019-06-07T14:52:01.833Z,5.03
2019-06-07T14:54:32.149Z,5.70
2019-06-07T14:57:03.126Z,3.40
2019-06-07T14:59:30.691Z,5.75
2019-06-07T15:01:59.382Z,6.00
2019-06-07T15:04:28.635Z,3.20
2019-06-07T15:06:57.140Z,5.42
2019-06-07T15:09:26.915Z,7.78
2019-06-07T15:11:56.381Z,4.10
2019-06-07T15:14:24.909Z,3.65
2019-06-07T15:16:53.642Z,4.05
2019-06-07T15:19:24.194Z,4.92
2019-06-07T15:21:52.245Z,3.33
2019-06-07T15:24:21.033Z,3.52
2019-06-07T15:26:49.841Z,4.17
2019-06-07T15:29:18.298Z,3.83
2019-06-07T15:31:46.824Z,3.65
2019-06-07T15:34:15.241Z,4.15
2019-06-07T15:36:43.979Z,7.03
2019-06-07T15:39:12.770Z,4.60
2019-06-07T15:41:41.204Z,3.45
2019-06-07T15:44:09.658Z,3.02
2019-06-07T15:46:38.177Z,4.20
2019-06-07T15:49:06.727Z,5.08
2019-06-07T15:51:36.569Z,5.03
2019-06-07T15:54:05.544Z,4.20
2019-06-07T15:56:34.636Z,4.22
2019-06-07T15:59:03.417Z,4.62
2019-06-07T16:01:33.318Z,3.47
2019-06-07T16:04:02.145Z,8.03
2019-06-07T16:06:32.090Z,3.40
2019-06-07T16:09:01.058Z,7.10
2019-06-07T16:11:30.240Z,4.90
2019-06-07T16:13:58.941Z,6.60
2019-06-07T16:16:27.392Z,5.03
2019-06-07T16:18:56.119Z,5.22
2019-06-07T16:21:24.569Z,5.58
2019-06-07T16:23:53.295Z,12.20
2019-06-07T16:26:21.729Z,3.95
2019-06-07T16:28:50.585Z,5.75
2019-06-07T16:31:19.263Z,7.53
2019-06-07T16:33:48.082Z,6.83
2019-06-07T16:36:16.859Z,5.53
2019-06-07T16:38:45.312Z,9.13
2019-06-07T16:41:13.748Z,8.70
2019-06-07T16:43:42.699Z,10.88
2019-06-07T16:46:11.219Z,6.28
2019-06-07T16:48:40.828Z,6.22
2019-06-07T16:51:09.460Z,8.95
2019-06-07T16:53:38.319Z,7.47
2019-06-07T16:56:07.101Z,6.53
2019-06-07T16:58:35.893Z,6.42
2019-06-07T17:01:04.785Z,5.05
2019-06-07T17:03:33.216Z,7.22
2019-06-07T17:06:01.701Z,8.95
2019-06-07T17:08:30.174Z,5.12
2019-06-07T17:10:58.642Z,4.35
2019-06-07T17:13:33.508Z,8.75
2019-06-07T17:15:58.056Z,7.42
2019-06-07T17:18:26.854Z,5.10
2019-06-07T17:20:55.288Z,11.18
2019-06-07T17:23:23.754Z,8.78
2019-06-07T17:25:52.312Z,7.80
2019-06-07T17:28:20.779Z,6.22
2019-06-07T17:30:50.306Z,4.55
2019-06-07T17:33:19.301Z,5.22
2019-06-07T17:35:48.558Z,8.53
2019-06-07T17:38:17.210Z,7.92
2019-06-07T17:40:46.999Z,6.15
2019-06-07T17:43:15.587Z,6.72
2019-06-07T17:45:45.285Z,5.90
2019-06-07T17:48:14.450Z,5.47
2019-06-07T17:50:43.696Z,8.70
2019-06-07T17:53:12.378Z,5.75
2019-06-07T17:55:42.082Z,8.28
2019-06-07T17:58:10.664Z,6.70
2019-06-07T18:00:51.015Z,11.18
2019-06-07T18:03:20.381Z,8.25
2019-06-07T18:05:49.740Z,6.17
2019-06-07T18:08:18.457Z,7.35
2019-06-07T18:10:47.869Z,9.33
2019-06-07T18:13:16.573Z,6.05
2019-06-07T18:15:53.276Z,7.90
2019-06-07T18:18:18.106Z,7.92
2019-06-07T18:20:47.152Z,7.72
2019-06-07T18:23:16.452Z,6.53
2019-06-07T18:25:46.418Z,4.58
2019-06-07T18:28:15.466Z,4.22
2019-06-07T18:30:44.370Z,5.00
2019-06-07T18:33:12.802Z,4.80
2019-06-07T18:35:41.251Z,4.12
2019-06-07T18:38:10.903Z,5.10
2019-06-07T18:40:40.647Z,3.12
2019-06-07T18:43:09.140Z,4.33
2019-06-07T18:45:37.956Z,3.87
2019-06-07T18:48:06.943Z,4.20
2019-06-07T18:50:36.285Z,7.08
2019-06-07T18:53:05.453Z,10.55
2019-06-07T18:55:33.960Z,7.62
2019-06-07T18:58:02.837Z,3.60
2019-06-07T19:00:32.556Z,5.40
2019-06-07T19:03:01.005Z,4.00
2019-06-07T19:05:29.723Z,3.95
2019-06-07T19:07:59.945Z,4.30
2019-06-07T19:10:28.973Z,3.90
2019-06-07T19:12:57.757Z,4.00
2019-06-07T19:15:26.821Z,4.87
2019-06-07T19:17:56.135Z,9.08
2019-06-07T19:20:25.151Z,41.15
2019-06-07T19:22:54.184Z,25.48
2019-06-07T19:25:22.860Z,10.38
2019-06-07T19:27:52.774Z,13.22
2019-06-07T19:30:21.501Z,7.12
2019-06-07T19:32:51.403Z,5.65
2019-06-07T19:35:20.540Z,7.70
2019-06-07T19:37:49.039Z,9.05
2019-06-07T19:40:17.610Z,9.98
2019-06-07T19:42:46.332Z,4.75
2019-06-07T19:45:29.699Z,6.90
2019-06-07T19:47:47.205Z,3.70
2019-06-07T19:50:16.870Z,3.98
2019-06-07T19:52:45.710Z,5.85
2019-06-07T19:55:14.418Z,3.65
2019-06-07T19:57:42.916Z,6.05
2019-06-07T20:00:14.637Z,6.25
2019-06-07T20:02:43.341Z,2.70
2019-06-07T20:05:15.961Z,3.20
2019-06-07T20:07:44.477Z,7.03
2019-06-07T20:10:15.234Z,4.55
2019-06-07T20:12:43.674Z,7.40
2019-06-07T20:15:27.948Z,6.55
2019-06-07T20:17:43.909Z,4.67
2019-06-07T20:20:12.527Z,2.60
2019-06-07T20:22:41.031Z,4.78
2019-06-07T20:25:11.530Z,8.75
2019-06-07T20:27:39.967Z,2.40
2019-06-07T20:30:09.565Z,7.90
2019-06-07T20:32:37.997Z,4.25
2019-06-07T20:35:08.303Z,5.47
2019-06-07T20:37:37.406Z,1.15
2019-06-07T20:40:22.806Z,1.57
2019-06-07T20:42:39.569Z,8.53
2019-06-07T20:45:08.778Z,8.93
2019-06-07T20:47:37.234Z,8.63
2019-06-07T20:50:09.232Z,3.42
2019-06-07T20:52:37.776Z,3.83
2019-06-07T20:55:07.215Z,4.22
2019-06-07T20:57:35.754Z,6.47
2019-06-07T21:00:20.417Z,4.42
2019-06-07T21:02:40.028Z,5.75
2019-06-07T21:05:09.955Z,5.78
2019-06-07T21:07:38.720Z,4.45
2019-06-07T21:10:10.805Z,5.87
2019-06-07T21:12:39.827Z,7.30
2019-06-07T21:15:13.791Z,3.12
2019-06-07T21:17:39.306Z,4.80
2019-06-07T21:20:13.655Z,4.10
2019-06-07T21:22:40.020Z,1.67
2019-06-07T21:25:09.702Z,2.25
2019-06-07T21:27:38.631Z,1.27
2019-06-07T21:30:11.607Z,2.47
2019-06-07T21:32:40.281Z,5.47
2019-06-07T21:35:10.195Z,3.70
2019-06-07T21:37:39.262Z,1.42
2019-06-07T21:40:08.382Z,4.17
2019-06-07T21:42:37.333Z,5.20
2019-06-07T21:45:07.893Z,1.98
2019-06-07T21:47:36.898Z,2.85
2019-06-07T21:50:10.613Z,2.58
2019-06-07T21:52:39.664Z,2.08
2019-06-07T21:55:09.119Z,2.10
2019-06-07T21:57:38.984Z,2.58
2019-06-07T22:00:14.852Z,3.52
2019-06-07T22:02:43.319Z,3.62
2019-06-07T22:05:12.227Z,3.20
2019-06-07T22:07:40.665Z,4.30
2019-06-07T22:10:10.065Z,1.70
2019-06-07T22:12:38.711Z,1.72
2019-06-07T22:15:28.504Z,4.08
2019-06-07T22:17:38.563Z,1.37
2019-06-07T22:20:08.479Z,2.40
2019-06-07T22:22:37.168Z,1.52
2019-06-07T22:25:07.071Z,1.50
2019-06-07T22:27:35.560Z,2.22
2019-06-07T22:30:08.270Z,3.35
2019-06-07T22:32:37.180Z,1.47
2019-06-07T22:35:06.772Z,1.45
2019-06-07T22:37:35.746Z,2.55
2019-06-07T22:40:10.535Z,2.80
2019-06-07T22:42:39.279Z,2.75
2019-06-07T22:45:10.655Z,6.37
2019-06-07T22:47:38.914Z,1.72
2019-06-07T22:50:08.744Z,2.65
2019-06-07T22:52:37.583Z,1.65
2019-06-07T22:55:07.856Z,1.70
2019-06-07T22:57:54.122Z,2.83
2019-06-07T23:00:23.530Z,1.40
2019-06-07T23:02:51.975Z,0.95
2019-06-07T23:05:20.428Z,1.00
2019-06-07T23:07:48.920Z,2.42
2019-06-07T23:10:17.633Z,1.35
2019-06-07T23:12:46.377Z,2.47
2019-06-07T23:15:15.491Z,2.00
2019-06-07T23:17:44.367Z,2.15
2019-06-07T23:20:13.775Z,2.10
2019-06-07T23:22:42.566Z,1.15
2019-06-07T23:25:12.258Z,1.87
2019-06-07T23:27:41.275Z,1.45
2019-06-07T23:30:10.774Z,2.92
2019-06-07T23:32:39.277Z,2.02
2019-06-07T23:35:08.785Z,1.62
2019-06-07T23:37:37.236Z,2.60
2019-06-07T23:40:06.958Z,2.37
2019-06-07T23:42:35.432Z,3.00
2019-06-07T23:45:04.710Z,2.20
2019-06-07T23:47:33.468Z,1.25
2019-06-07T23:50:01.939Z,1.50
2019-06-07T23:52:30.751Z,1.92
2019-06-07T23:54:59.193Z,1.47
2019-06-07T23:57:27.634Z,1.85
2019-06-07T23:59:56.408Z,1.82
